createdAt,value
2019-05-11T00:00:36.317Z,93.20
2019-05-11T00:03:03.264Z,93.20
2019-05-11T00:05:30.137Z,93.30
2019-05-11T00:07:58.357Z,93.60
2019-05-11T00:10:25.232Z,93.90
2019-05-11T00:12:52.109Z,94.10
2019-05-11T00:15:18.932Z,94.40
2019-05-11T00:17:45.820Z,94.70
2019-05-11T00:20:13.066Z,94.80
2019-05-11T00:22:39.920Z,94.80
2019-05-11T00:25:07.140Z,95.10
2019-05-11T00:27:34.038Z,95.50
2019-05-11T00:30:00.849Z,95.40
2019-05-11T00:32:27.880Z,96.00
2019-05-11T00:34:54.747Z,96.00
2019-05-11T00:37:21.572Z,95.70
2019-05-11T00:39:48.448Z,95.60
2019-05-11T00:42:15.272Z,95.90
2019-05-11T00:44:42.152Z,96.50
2019-05-11T00:47:09.020Z,96.60
2019-05-11T00:49:35.844Z,97.20
2019-05-11T00:52:02.742Z,97.60
2019-05-11T00:54:29.588Z,97.30
2019-05-11T00:56:56.454Z,97.70
2019-05-11T00:59:23.273Z,98.20
2019-05-11T01:01:50.144Z,98.20
2019-05-11T01:04:16.973Z,98.10
2019-05-11T01:06:44.266Z,98.20
2019-05-11T01:09:11.091Z,98.50
2019-05-11T01:11:38.187Z,98.50
2019-05-11T01:14:05.062Z,98.50
2019-05-11T01:16:31.889Z,98.50
2019-05-11T01:18:58.780Z,98.50
2019-05-11T01:21:25.603Z,98.50
2019-05-11T01:23:52.517Z,98.50
2019-05-11T01:26:19.331Z,98.50
2019-05-11T01:28:46.212Z,98.50
2019-05-11T01:31:13.101Z,98.50
2019-05-11T01:33:40.000Z,98.50
2019-05-11T01:36:06.815Z,98.50
2019-05-11T01:38:33.639Z,98.50
2019-05-11T01:41:00.806Z,98.50
2019-05-11T01:43:27.636Z,98.50
2019-05-11T01:45:54.508Z,98.50
2019-05-11T01:48:21.336Z,98.50
2019-05-11T01:50:48.488Z,98.50
2019-05-11T01:53:15.304Z,98.50
2019-05-11T01:55:42.129Z,98.20
2019-05-11T01:58:08.921Z,98.10
2019-05-11T02:00:36.145Z,98.50
2019-05-11T02:03:02.904Z,98.40
2019-05-11T02:05:30.348Z,98.50
2019-05-11T02:07:58.587Z,98.50
2019-05-11T02:10:25.482Z,98.50
2019-05-11T02:12:52.274Z,98.50
2019-05-11T02:15:19.168Z,98.50
2019-05-11T02:17:46.006Z,98.50
2019-05-11T02:20:12.844Z,98.50
2019-05-11T02:22:39.631Z,98.50
2019-05-11T02:25:06.857Z,98.50
2019-05-11T02:27:33.715Z,98.50
2019-05-11T02:30:00.499Z,98.50
2019-05-11T02:32:27.313Z,98.50
2019-05-11T02:34:54.088Z,98.50
2019-05-11T02:37:20.924Z,98.50
2019-05-11T02:39:47.723Z,98.50
2019-05-11T02:42:15.400Z,98.50
2019-05-11T02:44:42.184Z,98.50
2019-05-11T02:47:09.077Z,98.50
2019-05-11T02:49:35.858Z,98.50
2019-05-11T02:52:02.694Z,98.30
2019-05-11T02:54:30.024Z,98.10
2019-05-11T02:56:56.805Z,98.10
2019-05-11T02:59:23.642Z,98.20
2019-05-11T03:01:50.438Z,98.30
2019-05-11T03:04:17.286Z,98.50
2019-05-11T03:06:44.071Z,98.50
2019-05-11T03:09:10.900Z,98.50
2019-05-11T03:11:54.055Z,98.50
2019-05-11T03:14:06.351Z,98.50
2019-05-11T03:16:33.128Z,98.50
2019-05-11T03:18:59.909Z,98.20
2019-05-11T03:21:26.746Z,98.50
2019-05-11T03:23:53.621Z,98.50
2019-05-11T03:26:20.442Z,98.50
2019-05-11T03:28:47.233Z,98.50
2019-05-11T03:31:14.072Z,98.50
2019-05-11T03:33:40.978Z,98.50
2019-05-11T03:36:07.798Z,98.30
2019-05-11T03:38:34.637Z,98.20
2019-05-11T03:41:01.437Z,98.30
2019-05-11T03:43:28.281Z,98.50
2019-05-11T03:45:55.113Z,98.50
2019-05-11T03:48:22.011Z,98.30
2019-05-11T03:50:48.836Z,98.30
2019-05-11T03:53:15.680Z,98.10
2019-05-11T03:55:42.512Z,98.50
2019-05-11T03:58:09.320Z,98.50
2019-05-11T04:00:38.168Z,98.50
2019-05-11T04:03:05.001Z,98.50
2019-05-11T04:05:31.920Z,98.50
2019-05-11T04:07:58.760Z,98.50
2019-05-11T04:10:25.859Z,98.50
2019-05-11T04:12:52.988Z,98.50
2019-05-11T04:15:19.761Z,98.50
2019-05-11T04:17:46.611Z,98.50
2019-05-11T04:20:13.649Z,98.50
2019-05-11T04:22:40.424Z,98.50
2019-05-11T04:25:07.305Z,98.50
2019-05-11T04:27:34.643Z,98.50
2019-05-11T04:30:01.618Z,98.50
2019-05-11T04:32:28.493Z,98.50
2019-05-11T04:34:55.253Z,98.50
2019-05-11T04:37:22.045Z,98.50
2019-05-11T04:39:48.894Z,98.50
2019-05-11T04:42:15.678Z,98.50
2019-05-11T04:44:42.515Z,98.50
2019-05-11T04:47:09.294Z,97.90
2019-05-11T04:49:36.143Z,98.10
2019-05-11T04:52:02.940Z,98.50
2019-05-11T04:54:29.733Z,98.40
2019-05-11T04:56:56.555Z,98.40
2019-05-11T04:59:23.325Z,98.50
2019-05-11T05:01:50.472Z,98.50
2019-05-11T05:04:17.253Z,98.50
2019-05-11T05:06:58.628Z,98.50
2019-05-11T05:09:12.803Z,98.50
2019-05-11T05:11:39.704Z,98.50
2019-05-11T05:14:08.197Z,98.50
2019-05-11T05:16:35.145Z,98.50
2019-05-11T05:19:01.943Z,98.50
2019-05-11T05:21:28.769Z,98.50
2019-05-11T05:23:55.657Z,98.50
2019-05-11T05:26:22.496Z,98.50
2019-05-11T05:28:49.285Z,98.50
2019-05-11T05:31:16.555Z,98.50
2019-05-11T05:33:43.470Z,98.50
2019-05-11T05:36:10.276Z,98.50
2019-05-11T05:38:37.056Z,98.50
2019-05-11T05:41:03.890Z,98.50
2019-05-11T05:43:30.725Z,98.50
2019-05-11T05:45:57.504Z,98.50
2019-05-11T05:48:24.368Z,98.50
2019-05-11T05:50:51.450Z,98.50
2019-05-11T05:53:18.337Z,98.50
2019-05-11T05:55:45.129Z,98.50
2019-05-11T05:58:11.969Z,98.50
2019-05-11T06:00:39.187Z,98.50
2019-05-11T06:03:06.218Z,98.50
2019-05-11T06:05:33.085Z,98.50
2019-05-11T06:07:59.935Z,98.50
2019-05-11T06:10:26.712Z,98.50
2019-05-11T06:12:53.544Z,98.50
2019-05-11T06:15:20.321Z,98.50
2019-05-11T06:17:47.362Z,98.50
2019-05-11T06:20:15.209Z,98.50
2019-05-11T06:22:42.069Z,98.50
2019-05-11T06:25:12.130Z,98.50
2019-05-11T06:27:38.953Z,98.50
2019-05-11T06:30:06.389Z,98.50
2019-05-11T06:32:33.173Z,98.50
2019-05-11T06:35:00.008Z,98.50
2019-05-11T06:37:26.841Z,98.50
2019-05-11T06:39:53.672Z,98.50
2019-05-11T06:42:20.505Z,98.50
2019-05-11T06:44:47.286Z,98.50
2019-05-11T06:47:14.137Z,98.50
2019-05-11T06:49:41.032Z,98.50
2019-05-11T06:52:07.872Z,98.50
2019-05-11T06:54:34.648Z,98.50
2019-05-11T06:57:01.433Z,98.50
2019-05-11T06:59:28.274Z,98.50
2019-05-11T07:01:55.100Z,98.50
2019-05-11T07:04:21.928Z,98.50
2019-05-11T07:06:48.795Z,98.50
2019-05-11T07:09:15.608Z,98.50
2019-05-11T07:11:42.432Z,98.50
2019-05-11T07:14:20.146Z,98.50
2019-05-11T07:16:37.977Z,98.50
2019-05-11T07:19:04.881Z,98.50
2019-05-11T07:21:31.680Z,98.50
2019-05-11T07:23:58.573Z,98.50
2019-05-11T07:26:25.421Z,98.50
2019-05-11T07:28:52.225Z,98.50
2019-05-11T07:31:19.008Z,98.50
2019-05-11T07:33:45.857Z,98.50
2019-05-11T07:36:12.745Z,98.50
2019-05-11T07:38:39.568Z,98.50
2019-05-11T07:41:08.625Z,98.50
2019-05-11T07:43:35.185Z,98.50
2019-05-11T07:46:02.082Z,98.50
2019-05-11T07:48:29.005Z,98.50
2019-05-11T07:50:58.242Z,98.50
2019-05-11T07:53:24.514Z,98.50
2019-05-11T07:55:51.952Z,98.50
2019-05-11T07:58:20.338Z,98.50
2019-05-11T08:00:48.882Z,98.50
2019-05-11T08:03:17.945Z,98.50
2019-05-11T08:05:44.525Z,98.50
2019-05-11T08:08:11.312Z,98.50
2019-05-11T08:10:39.035Z,98.50
2019-05-11T08:13:08.811Z,98.50
2019-05-11T08:15:34.746Z,98.50
2019-05-11T08:18:01.578Z,98.30
2019-05-11T08:20:28.593Z,97.40
2019-05-11T08:22:55.572Z,97.80
2019-05-11T08:25:22.350Z,97.30
2019-05-11T08:27:49.181Z,97.50
2019-05-11T08:30:18.611Z,96.60
2019-05-11T08:32:44.905Z,97.10
2019-05-11T08:35:12.054Z,96.60
2019-05-11T08:37:38.976Z,95.20
2019-05-11T08:40:07.862Z,95.90
2019-05-11T08:42:34.773Z,95.30
2019-05-11T08:45:16.191Z,95.30
2019-05-11T08:47:30.208Z,95.70
2019-05-11T08:49:58.912Z,95.20
2019-05-11T08:52:27.835Z,95.60
2019-05-11T08:54:54.293Z,94.50
2019-05-11T08:57:21.125Z,95.40
2019-05-11T08:59:48.650Z,95.20
2019-05-11T09:02:18.447Z,94.70
2019-05-11T09:04:44.640Z,95.10
2019-05-11T09:07:11.478Z,95.20
2019-05-11T09:09:38.557Z,94.60
2019-05-11T09:12:07.672Z,94.00
2019-05-11T09:14:33.985Z,94.90
2019-05-11T09:17:01.239Z,94.00
2019-05-11T09:19:28.584Z,93.30
2019-05-11T09:21:55.574Z,93.20
2019-05-11T09:24:22.408Z,92.40
2019-05-11T09:26:49.190Z,91.20
2019-05-11T09:29:17.932Z,89.70
2019-05-11T09:31:44.660Z,89.20
2019-05-11T09:34:11.494Z,89.00
2019-05-11T09:36:39.052Z,87.30
2019-05-11T09:39:08.386Z,87.50
2019-05-11T09:41:35.568Z,87.50
2019-05-11T09:44:02.609Z,85.20
2019-05-11T09:46:29.396Z,82.40
2019-05-11T09:48:56.233Z,81.00
2019-05-11T09:51:24.817Z,81.70
2019-05-11T09:53:52.144Z,81.00
2019-05-11T09:56:19.428Z,81.10
2019-05-11T09:58:47.983Z,81.60
2019-05-11T10:01:14.900Z,82.90
2019-05-11T10:03:41.683Z,83.20
2019-05-11T10:06:08.564Z,82.60
2019-05-11T10:08:35.367Z,82.10
2019-05-11T10:11:02.958Z,82.20
2019-05-11T10:13:29.797Z,80.50
2019-05-11T10:16:04.685Z,79.20
2019-05-11T10:18:25.243Z,79.90
2019-05-11T10:20:52.523Z,80.80
2019-05-11T10:23:19.361Z,79.60
2019-05-11T10:25:48.085Z,80.30
2019-05-11T10:28:15.188Z,79.60
2019-05-11T10:30:42.429Z,79.00
2019-05-11T10:33:09.261Z,78.80
2019-05-11T10:35:37.827Z,79.50
2019-05-11T10:38:04.769Z,79.10
2019-05-11T10:40:31.559Z,78.60
2019-05-11T10:42:59.227Z,79.40
2019-05-11T10:45:28.364Z,78.90
2019-05-11T10:47:57.720Z,79.50
2019-05-11T10:50:23.264Z,80.00
2019-05-11T10:52:50.947Z,78.70
2019-05-11T10:55:19.272Z,78.70
2019-05-11T10:57:48.579Z,78.80
2019-05-11T11:00:17.761Z,79.50
2019-05-11T11:02:44.813Z,80.10
2019-05-11T11:05:11.649Z,79.40
2019-05-11T11:07:38.682Z,79.50
2019-05-11T11:10:08.570Z,78.80
2019-05-11T11:12:34.664Z,77.50
2019-05-11T11:15:01.457Z,78.40
2019-05-11T11:17:28.850Z,79.80
2019-05-11T11:19:57.979Z,79.20
2019-05-11T11:22:37.112Z,80.10
2019-05-11T11:24:53.202Z,79.50
2019-05-11T11:27:20.048Z,80.10
2019-05-11T11:29:47.550Z,80.60
2019-05-11T11:32:14.577Z,81.20
2019-05-11T11:34:41.414Z,80.80
2019-05-11T11:37:08.399Z,80.30
2019-05-11T11:39:35.558Z,79.00
2019-05-11T11:42:02.426Z,78.30
2019-05-11T11:44:29.389Z,80.00
2019-05-11T11:46:58.781Z,82.60
2019-05-11T11:49:24.969Z,84.90
2019-05-11T11:51:51.949Z,83.70
2019-05-11T11:54:18.769Z,84.80
2019-05-11T11:56:45.609Z,86.80
2019-05-11T11:59:12.393Z,87.90
2019-05-11T12:01:39.222Z,90.50
2019-05-11T12:04:08.061Z,89.40
2019-05-11T12:06:34.637Z,90.70
2019-05-11T12:09:01.477Z,91.30
2019-05-11T12:11:28.257Z,91.20
2019-05-11T12:13:55.093Z,91.20
2019-05-11T12:16:21.893Z,91.90
2019-05-11T12:18:48.898Z,90.40
2019-05-11T12:21:15.701Z,90.50
2019-05-11T12:23:42.541Z,88.80
2019-05-11T12:26:09.326Z,88.80
2019-05-11T12:28:38.051Z,88.40
2019-05-11T12:31:04.748Z,88.60
2019-05-11T12:33:31.584Z,84.80
2019-05-11T12:35:58.750Z,85.50
2019-05-11T12:38:27.674Z,82.00
2019-05-11T12:40:54.289Z,82.30
2019-05-11T12:43:22.626Z,84.10
2019-05-11T12:45:49.633Z,84.30
2019-05-11T12:48:18.070Z,84.70
2019-05-11T12:50:45.040Z,84.30
2019-05-11T12:53:12.074Z,85.00
2019-05-11T12:55:38.950Z,86.30
2019-05-11T12:58:05.730Z,86.60
2019-05-11T13:00:32.645Z,87.00
2019-05-11T13:02:59.684Z,87.70
2019-05-11T13:05:28.353Z,88.20
2019-05-11T13:07:55.059Z,88.70
2019-05-11T13:10:21.840Z,89.20
2019-05-11T13:12:49.374Z,89.60
2019-05-11T13:15:17.521Z,90.20
2019-05-11T13:17:44.505Z,90.60
2019-05-11T13:20:12.989Z,91.30
2019-05-11T13:22:40.204Z,90.90
2019-05-11T13:25:08.540Z,91.20
2019-05-11T13:27:35.638Z,90.90
2019-05-11T13:30:08.139Z,90.00
2019-05-11T13:32:35.516Z,90.50
2019-05-11T13:35:03.472Z,90.70
2019-05-11T13:37:30.547Z,89.60
2019-05-11T13:39:57.985Z,87.90
2019-05-11T13:42:24.984Z,87.60
2019-05-11T13:44:51.821Z,87.30
2019-05-11T13:47:18.611Z,85.80
2019-05-11T13:49:47.785Z,84.10
2019-05-11T13:52:14.244Z,83.50
2019-05-11T13:54:41.025Z,84.20
2019-05-11T13:57:08.126Z,83.00
2019-05-11T13:59:35.065Z,83.40
2019-05-11T14:02:01.889Z,82.60
2019-05-11T14:04:28.693Z,82.10
2019-05-11T14:06:55.464Z,79.10
2019-05-11T14:09:22.300Z,77.60
2019-05-11T14:11:49.083Z,76.70
2019-05-11T14:14:18.183Z,76.30
2019-05-11T14:16:44.560Z,77.70
2019-05-11T14:19:11.349Z,74.40
2019-05-11T14:21:38.555Z,76.20
2019-05-11T14:24:07.589Z,80.30
2019-05-11T14:26:34.166Z,80.60
2019-05-11T14:29:00.952Z,80.90
2019-05-11T14:31:28.121Z,81.10
2019-05-11T14:33:55.101Z,81.90
2019-05-11T14:36:21.883Z,82.70
2019-05-11T14:38:48.912Z,82.20
2019-05-11T14:41:17.969Z,82.60
2019-05-11T14:43:44.465Z,83.00
2019-05-11T14:46:11.961Z,82.80
2019-05-11T14:48:39.133Z,83.00
2019-05-11T14:51:08.370Z,82.70
2019-05-11T14:53:34.773Z,85.00
2019-05-11T14:56:01.611Z,82.40
2019-05-11T14:58:28.402Z,83.10
2019-05-11T15:00:55.228Z,81.50
2019-05-11T15:03:22.074Z,78.60
2019-05-11T15:05:49.084Z,77.60
2019-05-11T15:08:17.823Z,77.50
2019-05-11T15:10:44.544Z,76.40
2019-05-11T15:13:11.381Z,76.70
2019-05-11T15:15:39.419Z,78.60
2019-05-11T15:18:08.450Z,79.20
2019-05-11T15:20:35.354Z,80.30
2019-05-11T15:23:02.401Z,80.70
2019-05-11T15:25:29.289Z,81.40
2019-05-11T15:27:57.933Z,81.80
2019-05-11T15:30:24.657Z,81.80
2019-05-11T15:32:51.497Z,81.70
2019-05-11T15:35:19.152Z,81.20
2019-05-11T15:37:47.950Z,81.60
2019-05-11T15:40:18.578Z,81.10
2019-05-11T15:42:48.371Z,81.80
2019-05-11T15:45:14.921Z,82.30
2019-05-11T15:47:41.774Z,81.90
2019-05-11T15:50:09.557Z,82.10
2019-05-11T15:52:39.889Z,82.50
2019-05-11T15:55:08.131Z,82.80
2019-05-11T15:57:35.029Z,83.30
2019-05-11T16:00:02.132Z,82.80
2019-05-11T16:02:28.995Z,82.80
2019-05-11T16:04:57.869Z,82.60
2019-05-11T16:07:24.369Z,82.40
2019-05-11T16:09:51.209Z,82.40
2019-05-11T16:12:18.286Z,82.60
2019-05-11T16:14:45.238Z,82.60
2019-05-11T16:17:12.084Z,83.00
2019-05-11T16:19:41.136Z,82.40
2019-05-11T16:22:09.891Z,82.60
2019-05-11T16:24:39.842Z,83.20
2019-05-11T16:27:05.048Z,82.70
2019-05-11T16:29:31.829Z,82.10
2019-05-11T16:31:58.616Z,82.10
2019-05-11T16:34:27.624Z,81.60
2019-05-11T16:36:54.048Z,82.30
2019-05-11T16:39:20.893Z,82.60
2019-05-11T16:41:48.624Z,82.60
2019-05-11T16:44:18.265Z,82.70
2019-05-11T16:46:44.833Z,82.90
2019-05-11T16:49:24.899Z,83.00
2019-05-11T16:51:40.316Z,83.30
2019-05-11T16:54:07.094Z,83.80
2019-05-11T16:56:33.937Z,83.10
2019-05-11T16:59:00.721Z,83.70
2019-05-11T17:01:27.563Z,83.40
2019-05-11T17:03:54.393Z,83.50
2019-05-11T17:06:21.181Z,83.90
2019-05-11T17:08:48.681Z,83.80
2019-05-11T17:11:15.712Z,83.30
2019-05-11T17:13:42.544Z,83.60
2019-05-11T17:16:09.329Z,83.00
2019-05-11T17:18:36.172Z,83.20
2019-05-11T17:21:02.952Z,82.80
2019-05-11T17:23:31.209Z,82.90
2019-05-11T17:25:58.223Z,82.40
2019-05-11T17:28:25.076Z,82.30
2019-05-11T17:30:51.912Z,82.20
2019-05-11T17:33:18.693Z,82.00
2019-05-11T17:35:47.887Z,81.80
2019-05-11T17:38:14.136Z,81.40
2019-05-11T17:40:41.000Z,81.90
2019-05-11T17:43:09.094Z,81.90
2019-05-11T17:45:36.145Z,81.90
2019-05-11T17:48:08.263Z,80.10
2019-05-11T17:50:34.830Z,80.30
2019-05-11T17:53:01.673Z,79.80
2019-05-11T17:55:28.784Z,80.10
2019-05-11T17:57:58.063Z,80.60
2019-05-11T18:00:28.371Z,80.90
2019-05-11T18:02:55.231Z,80.70
2019-05-11T18:05:22.016Z,79.60
2019-05-11T18:07:48.885Z,79.50
2019-05-11T18:10:18.021Z,79.20
2019-05-11T18:12:44.386Z,79.60
2019-05-11T18:15:11.313Z,79.60
2019-05-11T18:17:38.108Z,80.20
2019-05-11T18:20:14.892Z,80.00
2019-05-11T18:22:35.436Z,80.50
2019-05-11T18:25:02.413Z,80.70
2019-05-11T18:27:29.196Z,81.40
2019-05-11T18:29:58.046Z,81.00
2019-05-11T18:32:24.861Z,80.50
2019-05-11T18:34:51.710Z,80.40
2019-05-11T18:37:18.734Z,81.00
2019-05-11T18:39:45.745Z,80.90
2019-05-11T18:42:12.535Z,81.50
2019-05-11T18:44:39.381Z,81.60
2019-05-11T18:47:08.679Z,81.40
2019-05-11T18:49:34.873Z,81.80
2019-05-11T18:52:01.661Z,82.00
2019-05-11T18:54:28.493Z,82.40
2019-05-11T18:56:55.273Z,82.40
2019-05-11T18:59:22.111Z,82.50
2019-05-11T19:01:48.894Z,81.70
2019-05-11T19:04:18.207Z,81.50
2019-05-11T19:06:44.620Z,81.60
2019-05-11T19:09:11.471Z,81.90
2019-05-11T19:11:38.563Z,82.00
2019-05-11T19:14:05.489Z,82.30
2019-05-11T19:16:32.270Z,82.30
2019-05-11T19:18:59.109Z,82.70
2019-05-11T19:21:25.948Z,83.30
2019-05-11T19:23:52.737Z,83.00
2019-05-11T19:26:20.157Z,83.10
2019-05-11T19:28:46.994Z,82.00
2019-05-11T19:31:13.833Z,82.80
2019-05-11T19:33:40.673Z,82.60
2019-05-11T19:36:07.888Z,82.50
2019-05-11T19:38:34.921Z,82.80
2019-05-11T19:41:01.769Z,82.60
2019-05-11T19:43:28.549Z,82.80
2019-05-11T19:45:57.881Z,83.00
2019-05-11T19:48:24.032Z,83.50
2019-05-11T19:51:03.702Z,84.10
2019-05-11T19:53:20.261Z,84.10
2019-05-11T19:55:47.921Z,84.20
2019-05-11T19:58:14.849Z,84.00
2019-05-11T20:00:41.902Z,84.10
2019-05-11T20:03:09.428Z,84.30
2019-05-11T20:05:38.019Z,84.60
2019-05-11T20:08:04.941Z,85.10
2019-05-11T20:10:31.730Z,85.00
2019-05-11T20:12:58.942Z,84.60
2019-05-11T20:15:25.813Z,84.70
2019-05-11T20:17:52.601Z,85.00
2019-05-11T20:20:19.446Z,84.70
2019-05-11T20:22:48.259Z,84.90
2019-05-11T20:25:14.925Z,85.00
2019-05-11T20:27:41.749Z,85.90
2019-05-11T20:30:08.739Z,85.90
2019-05-11T20:32:35.805Z,86.00
2019-05-11T20:35:03.988Z,86.30
2019-05-11T20:37:30.774Z,86.30
2019-05-11T20:39:58.551Z,86.40
2019-05-11T20:42:25.504Z,86.70
2019-05-11T20:44:52.351Z,86.90
2019-05-11T20:47:19.133Z,87.10
2019-05-11T20:49:48.017Z,86.90
2019-05-11T20:52:14.635Z,87.50
2019-05-11T20:54:41.721Z,87.50
2019-05-11T20:57:08.981Z,87.80
2019-05-11T20:59:38.064Z,88.00
2019-05-11T21:02:04.609Z,87.90
2019-05-11T21:04:31.457Z,88.40
2019-05-11T21:06:58.249Z,88.90
2019-05-11T21:09:25.089Z,88.80
2019-05-11T21:11:51.882Z,88.90
2019-05-11T21:14:18.717Z,88.80
2019-05-11T21:16:47.706Z,89.20
2019-05-11T21:19:14.152Z,89.00
2019-05-11T21:21:50.160Z,89.10
2019-05-11T21:24:09.652Z,89.40
2019-05-11T21:26:38.385Z,89.70
2019-05-11T21:29:05.076Z,89.80
2019-05-11T21:31:31.918Z,89.80
2019-05-11T21:33:59.052Z,89.50
2019-05-11T21:36:28.224Z,89.10
2019-05-11T21:38:54.482Z,89.20
2019-05-11T21:41:21.262Z,89.40
2019-05-11T21:43:48.388Z,89.60
2019-05-11T21:46:17.855Z,89.60
2019-05-11T21:48:43.873Z,90.10
2019-05-11T21:51:10.801Z,90.10
2019-05-11T21:53:38.143Z,90.40
2019-05-11T21:56:05.136Z,90.20
2019-05-11T21:58:31.921Z,90.40
2019-05-11T22:00:58.861Z,91.10
2019-05-11T22:03:27.917Z,91.40
2019-05-11T22:05:54.289Z,91.80
2019-05-11T22:08:21.072Z,91.90
2019-05-11T22:10:47.917Z,91.50
2019-05-11T22:13:14.711Z,91.30
2019-05-11T22:15:41.493Z,91.50
2019-05-11T22:18:08.332Z,91.20
2019-05-11T22:20:35.112Z,91.00
2019-05-11T22:23:02.006Z,90.90
2019-05-11T22:25:28.937Z,90.90
2019-05-11T22:27:57.630Z,91.20
2019-05-11T22:30:24.576Z,92.40
2019-05-11T22:32:51.420Z,93.50
2019-05-11T22:35:18.553Z,93.60
2019-05-11T22:37:45.553Z,93.90
2019-05-11T22:40:12.740Z,93.90
2019-05-11T22:42:39.608Z,93.90
2019-05-11T22:45:08.381Z,93.70
2019-05-11T22:47:35.541Z,93.90
2019-05-11T22:50:07.892Z,94.30
2019-05-11T22:52:36.700Z,94.50
2019-05-11T22:55:08.820Z,94.50
2019-05-11T22:57:37.918Z,94.50
2019-05-11T23:00:11.646Z,94.50
2019-05-11T23:02:38.640Z,94.40
2019-05-11T23:05:08.184Z,94.70
2019-05-11T23:07:34.708Z,95.40
2019-05-11T23:10:02.232Z,96.70
2019-05-11T23:12:29.677Z,97.60
2019-05-11T23:15:08.094Z,98.00
2019-05-11T23:17:35.056Z,98.50
2019-05-11T23:20:03.841Z,98.50
2019-05-11T23:22:31.001Z,98.50
2019-05-11T23:24:58.802Z,98.50
2019-05-11T23:27:25.701Z,98.50
2019-05-11T23:29:52.537Z,98.50
2019-05-11T23:32:19.677Z,98.50
2019-05-11T23:34:48.142Z,98.50
2019-05-11T23:37:15.108Z,98.50
2019-05-11T23:39:41.941Z,98.50
2019-05-11T23:42:08.732Z,98.50
2019-05-11T23:44:35.528Z,98.50
2019-05-11T23:47:03.050Z,98.50
2019-05-11T23:49:29.893Z,98.50
2019-05-11T23:51:56.721Z,98.50
2019-05-11T23:54:23.504Z,98.50
2019-05-11T23:56:50.394Z,98.50
2019-05-11T23:59:18.810Z,98.50
